Time;durP1;ratioP1;P1;durP2;ratioP2;P2;SDS_P1;SDS_P2;PMS_P1;PMS_P2;Temp;Humidity;BMP_temperature;BMP_pressure;BME280_temperature;BME280_humidity;BME280_pressure;Samples;Min_cycle;Max_cycle;Signal;HPM_P1;HPM_P2
2022/08/28 00:00:07;;;;;;;429.45;384.42;;;;;;;24.82;60.98;99245.47;336519;29;1412;-80
2022/08/28 00:00:18;;;;;;;430.42;385.52;;;;;;;24.82;61.07;99244.63;332715;29;1276;-81
2022/08/28 00:00:29;;;;;;;431.23;386.33;;;;;;;24.81;61.42;99242.97;334766;29;1320;-79
2022/08/28 00:00:40;;;;;;;429.30;384.50;;;;;;;24.80;61.12;99246.63;333174;29;1325;-79
2022/08/28 00:00:50;;;;;;;436.70;391.35;;;;;;;24.80;61.23;99246.63;332852;29;1319;-80
2022/08/28 00:01:01;;;;;;;433.13;387.70;;;;;;;24.80;61.15;99252.84;331854;29;1158;-80
2022/08/28 00:01:11;;;;;;;425.50;380.30;;;;;;;24.81;60.99;99249.16;333168;29;1232;-81
2022/08/28 00:01:22;;;;;;;424.48;379.30;;;;;;;24.80;61.26;99247.47;334108;29;1687;-80
2022/08/28 00:01:32;;;;;;;419.67;374.63;;;;;;;24.79;61.23;99245.81;333641;29;1406;-80
2022/08/28 00:01:43;;;;;;;428.30;382.88;;;;;;;24.81;61.49;99248.31;330568;29;2284;-80
2022/08/28 00:01:53;;;;;;;424.00;378.70;;;;;;;24.81;61.26;99242.97;330492;29;1240;-80
2022/08/28 00:02:04;;;;;;;425.10;379.80;;;;;;;24.81;61.33;99246.47;326732;30;1811;-80
2022/08/28 00:02:14;;;;;;;426.40;381.30;;;;;;;24.82;61.16;99248.16;327278;29;2058;-80
2022/08/28 00:02:25;;;;;;;432.40;387.17;;;;;;;24.80;61.46;99246.63;326900;30;1702;-80
2022/08/28 00:02:35;;;;;;;428.70;383.83;;;;;;;24.82;61.33;99248.16;324471;30;795;-79
2022/08/28 00:02:46;;;;;;;418.07;373.73;;;;;;;24.80;61.30;99242.13;324265;30;1590;-79
2022/08/28 00:02:56;;;;;;;418.33;374.00;;;;;;;24.81;61.65;99246.47;324281;30;1371;-79
2022/08/28 00:03:08;;;;;;;424.98;380.23;;;;;;;24.81;61.69;99238.44;323400;30;1268;-79
2022/08/28 00:03:18;;;;;;;422.38;377.20;;;;;;;24.80;61.70;99247.47;322699;30;1489;-79
2022/08/28 00:03:29;;;;;;;416.70;371.50;;;;;;;24.79;61.58;99240.44;320256;30;1660;-79
2022/08/28 00:03:39;;;;;;;420.55;375.33;;;;;;;24.79;61.54;99240.44;318824;31;916;-79
2022/08/28 00:03:50;;;;;;;427.43;382.43;;;;;;;24.76;61.60;99243.44;311316;31;1532;-79
2022/08/28 00:04:00;;;;;;;427.98;383.15;;;;;;;24.77;61.78;99242.44;310683;31;3105;-79
2022/08/28 00:04:11;;;;;;;427.17;382.07;;;;;;;24.76;61.45;99248.81;307525;31;2590;-80
2022/08/28 00:04:21;;;;;;;429.05;383.83;;;;;;;24.75;61.70;99239.09;305167;32;3353;-79
2022/08/28 00:04:31;;;;;;;436.23;390.80;;;;;;;24.74;61.14;99248.13;307484;32;2431;-81
2022/08/28 00:04:42;;;;;;;436.33;390.93;;;;;;;24.74;61.41;99242.78;308108;32;1793;-80
2022/08/28 00:04:52;;;;;;;435.95;390.60;;;;;;;24.74;61.23;99247.28;307151;32;2934;-79
2022/08/28 00:05:04;;;;;;;432.27;387.23;;;;;;;24.71;61.23;99243.09;309249;31;1379;-81
2022/08/28 00:05:15;;;;;;;434.48;389.55;;;;;;;24.72;61.35;99239.41;306700;32;1770;-81
2022/08/28 00:05:27;;;;;;;439.50;394.52;;;;;;;24.72;61.32;99239.41;304320;32;2189;-81
2022/08/28 00:05:41;;;;;;;443.13;397.83;;;;;;;24.73;61.22;99246.44;302164;32;1321;-80
2022/08/28 00:05:52;;;;;;;434.27;388.77;;;;;;;24.73;61.35;99238.41;303304;32;1343;-80
2022/08/28 00:06:02;;;;;;;425.88;380.83;;;;;;;24.71;61.38;99237.75;302359;32;2856;-81
2022/08/28 00:06:13;;;;;;;419.73;375.33;;;;;;;24.75;61.19;99244.44;299455;32;3565;-81
2022/08/28 00:06:23;;;;;;;427.73;382.97;;;;;;;24.74;61.54;99242.78;299309;33;908;-79
2022/08/28 00:06:34;;;;;;;426.33;381.50;;;;;;;24.74;61.55;99240.09;302304;32;3013;-80
2022/08/28 00:06:45;;;;;;;431.17;386.07;;;;;;;24.77;62.13;99245.13;302211;32;3202;-81
2022/08/28 00:06:55;;;;;;;426.58;381.60;;;;;;;24.78;61.92;99241.44;302828;32;2036;-80
2022/08/28 00:07:05;;;;;;;428.33;383.27;;;;;;;24.78;61.81;99238.78;296644;33;1195;-80
2022/08/28 00:07:16;;;;;;;425.95;380.92;;;;;;;24.77;61.64;99247.81;301159;32;1944;-80
2022/08/28 00:07:26;;;;;;;429.43;384.30;;;;;;;24.75;61.47;99241.78;303365;32;3123;-80
2022/08/28 00:07:37;;;;;;;431.33;385.97;;;;;;;24.74;61.79;99241.94;304228;32;1014;-80
2022/08/28 00:07:47;;;;;;;432.03;386.57;;;;;;;24.75;61.28;99238.25;297932;32;3782;-80
2022/08/28 00:07:58;;;;;;;431.90;386.48;;;;;;;24.74;61.72;99237.41;297896;32;3635;-80
2022/08/28 00:08:09;;;;;;;430.10;384.70;;;;;;;24.74;61.31;99242.78;298103;33;1310;-80
2022/08/28 00:08:20;;;;;;;432.40;386.90;;;;;;;24.74;61.63;99240.09;294826;33;3808;-80
2022/08/28 00:08:30;;;;;;;421.58;376.73;;;;;;;24.74;61.55;99236.56;293477;33;4772;-80
2022/08/28 00:08:41;;;;;;;427.80;382.77;;;;;;;24.73;61.50;99241.09;293008;33;3989;-80
2022/08/28 00:08:52;;;;;;;428.55;383.38;;;;;;;24.75;61.77;99243.59;288861;34;1420;-80
2022/08/28 00:09:03;;;;;;;434.97;389.20;;;;;;;24.74;61.57;99237.41;288470;34;4141;-80
2022/08/28 00:09:13;;;;;;;431.73;385.83;;;;;;;24.73;62.02;99241.09;287688;34;2849;-80
2022/08/28 00:09:23;;;;;;;427.33;381.73;;;;;;;24.73;61.72;99245.59;285318;34;1274;-80
2022/08/28 00:09:34;;;;;;;425.97;380.40;;;;;;;24.74;61.70;99241.94;283134;34;3638;-80
2022/08/28 00:09:44;;;;;;;430.67;385.43;;;;;;;24.75;61.89;99247.13;278120;35;4901;-79
2022/08/28 00:09:55;;;;;;;434.17;388.90;;;;;;;24.73;61.94;99243.78;275682;35;5354;-79
2022/08/28 00:10:06;;;;;;;430.42;385.27;;;;;;;24.74;62.05;99239.25;272260;36;1468;-80
2022/08/28 00:10:19;;;;;;;423.02;377.70;;;;;;;24.73;62.09;99241.09;274145;35;5819;-80
2022/08/28 00:10:29;;;;;;;420.08;374.67;;;;;;;24.73;62.17;99237.56;272598;35;5967;-80
2022/08/28 00:10:40;;;;;;;425.03;379.43;;;;;;;24.73;62.17;99245.59;269374;36;6962;-80
2022/08/28 00:10:51;;;;;;;433.23;387.33;;;;;;;24.69;62.62;99242.44;268279;36;2219;-80
2022/08/28 00:11:01;;;;;;;441.43;395.27;;;;;;;24.70;62.56;99243.25;269296;36;5500;-79
2022/08/28 00:12:51;;;;;;;384.53;315.29;;;;;;;24.65;62.50;99243.75;2500947;27;20272;-81
2022/08/28 00:13:01;;;;;;;416.23;371.95;;;;;;;24.65;62.45;99241.09;351626;28;1193;-81
2022/08/28 00:13:17;;;;;;;421.63;376.83;;;;;;;24.67;62.25;99246.28;348806;28;1382;-80
2022/08/28 00:13:27;;;;;;;419.83;375.08;;;;;;;24.64;62.71;99242.09;348768;28;3405;-80
2022/08/28 00:13:38;;;;;;;414.63;369.97;;;;;;;24.62;62.67;99241.41;346936;28;4850;-80
2022/08/28 00:13:49;;;;;;;417.10;372.58;;;;;;;24.60;62.75;99239.91;347685;28;1207;-80
2022/08/28 00:13:59;;;;;;;421.83;377.10;;;;;;;24.60;62.43;99235.38;347721;28;1989;-81
2022/08/28 00:14:12;;;;;;;423.40;378.70;;;;;;;24.61;62.65;99247.75;346716;28;1535;-80
2022/08/28 00:14:23;;;;;;;426.83;382.15;;;;;;;24.61;62.96;99247.75;347296;28;1600;-80
2022/08/28 00:14:35;;;;;;;428.52;383.75;;;;;;;24.60;62.73;99240.72;346260;28;1209;-80
2022/08/28 00:14:46;;;;;;;431.20;386.20;;;;;;;24.62;62.60;99248.59;345997;28;1525;-80
2022/08/28 00:14:56;;;;;;;428.15;383.25;;;;;;;24.60;62.53;99246.09;345977;28;1188;-80
2022/08/28 00:15:08;;;;;;;424.90;380.00;;;;;;;24.62;62.74;99249.44;345018;28;883;-80
2022/08/28 00:15:22;;;;;;;423.48;378.75;;;;;;;24.61;62.89;99241.56;344966;28;1118;-80
2022/08/28 00:15:35;;;;;;;432.00;387.08;;;;;;;24.60;63.08;99242.56;345768;28;1288;-80
2022/08/28 00:15:47;;;;;;;432.35;387.50;;;;;;;24.60;62.80;99237.22;346112;28;1339;-80
2022/08/28 00:15:59;;;;;;;427.65;382.90;;;;;;;24.59;63.11;99244.41;346478;28;1271;-80
2022/08/28 00:16:10;;;;;;;416.90;372.73;;;;;;;24.59;63.13;99246.25;343415;28;1331;-79
2022/08/28 00:16:20;;;;;;;422.67;378.38;;;;;;;24.58;63.19;99242.72;347511;28;1247;-80
2022/08/28 00:16:31;;;;;;;423.30;379.07;;;;;;;24.59;63.42;99243.56;348530;28;1238;-80
2022/08/28 00:16:41;;;;;;;430.00;385.25;;;;;;;24.57;63.67;99243.72;347707;28;1291;-80
2022/08/28 00:16:53;;;;;;;427.88;383.27;;;;;;;24.58;63.68;99248.09;349197;28;1292;-80
2022/08/28 00:17:03;;;;;;;435.85;390.92;;;;;;;24.57;63.15;99242.88;346462;28;1457;-80
2022/08/28 00:17:14;;;;;;;434.83;389.95;;;;;;;24.55;62.96;99243.06;346617;28;1587;-79
2022/08/28 00:17:24;;;;;;;431.90;387.13;;;;;;;24.52;63.86;99243.38;344618;28;1268;-80
2022/08/28 00:17:35;;;;;;;426.67;382.00;;;;;;;24.50;63.44;99240.84;346209;28;948;-79
2022/08/28 00:17:45;;;;;;;428.83;383.93;;;;;;;24.46;63.73;99254.72;344167;28;1151;-79
2022/08/28 00:17:56;;;;;;;431.60;386.45;;;;;;;24.41;63.87;99240.97;344590;28;1260;-79
2022/08/28 00:18:07;;;;;;;435.45;390.23;;;;;;;24.42;63.87;99242.66;347531;28;1587;-80
2022/08/28 00:18:17;;;;;;;437.73;392.20;;;;;;;24.42;63.95;99253.34;346278;28;1220;-79
2022/08/28 00:18:28;;;;;;;439.73;394.00;;;;;;;24.41;63.99;99246.31;342297;28;1221;-79
2022/08/28 00:18:38;;;;;;;437.98;392.23;;;;;;;24.40;64.08;99244.66;345093;28;1283;-79
2022/08/28 00:18:50;;;;;;;439.00;393.37;;;;;;;24.39;64.46;99243.81;343316;28;1693;-79
2022/08/28 00:19:00;;;;;;;431.38;385.90;;;;;;;24.39;64.18;99249.16;346493;28;1316;-79
2022/08/28 00:19:11;;;;;;;430.70;385.58;;;;;;;24.40;64.06;99245.47;345999;28;1094;-80
2022/08/28 00:19:22;;;;;;;434.10;388.93;;;;;;;24.42;64.50;99245.31;342047;28;1401;-79
2022/08/28 00:19:33;;;;;;;439.17;394.23;;;;;;;24.46;64.36;99246.69;341188;28;1184;-80
2022/08/28 00:19:44;;;;;;;439.52;394.60;;;;;;;24.45;64.05;99247.69;342846;28;1021;-80
2022/08/28 00:19:54;;;;;;;434.98;390.42;;;;;;;24.49;64.23;99249.03;342276;28;1365;-80
2022/08/28 00:20:05;;;;;;;432.60;387.97;;;;;;;24.49;63.97;99244.53;342688;28;1242;-80
2022/08/28 00:20:17;;;;;;;440.65;395.65;;;;;;;24.49;63.89;99249.88;343173;28;1297;-80
2022/08/28 00:20:29;;;;;;;447.65;402.50;;;;;;;24.50;64.40;99245.38;341259;28;1438;-80
2022/08/28 00:20:39;;;;;;;444.17;399.00;;;;;;;24.52;64.20;99243.38;343425;28;1352;-80
2022/08/28 00:20:50;;;;;;;441.27;396.13;;;;;;;24.53;64.02;99245.03;344825;28;851;-80
2022/08/28 00:21:00;;;;;;;441.42;396.10;;;;;;;24.51;64.13;99245.22;345696;28;1214;-79
2022/08/28 00:21:11;;;;;;;447.17;401.50;;;;;;;24.49;64.07;99244.53;343129;28;1483;-80
2022/08/28 00:21:22;;;;;;;442.55;396.92;;;;;;;24.49;64.04;99246.38;342487;28;814;-80
2022/08/28 00:21:32;;;;;;;439.30;393.77;;;;;;;24.49;63.81;99241.00;343302;28;1682;-80
2022/08/28 00:21:43;;;;;;;436.43;391.03;;;;;;;24.49;63.74;99243.69;342022;28;1468;-80
2022/08/28 00:21:53;;;;;;;442.85;397.00;;;;;;;24.51;63.67;99241.69;339596;29;1320;-80
2022/08/28 00:22:05;;;;;;;436.73;391.37;;;;;;;24.50;63.80;99242.69;338172;29;841;-80
2022/08/28 00:22:15;;;;;;;439.10;394.02;;;;;;;24.52;63.59;99243.38;338208;29;1318;-80
2022/08/28 00:22:26;;;;;;;436.87;392.07;;;;;;;24.52;63.64;99243.38;336109;29;1326;-80
2022/08/28 00:22:37;;;;;;;440.55;395.75;;;;;;;24.54;63.94;99252.06;333468;29;1268;-80
2022/08/28 00:22:48;;;;;;;436.13;391.50;;;;;;;24.54;64.02;99249.41;341396;28;3111;-80
2022/08/28 00:22:59;;;;;;;440.85;395.92;;;;;;;24.49;63.72;99241.00;339249;29;1684;-81
2022/08/28 00:23:09;;;;;;;441.08;395.95;;;;;;;24.46;63.83;99244.00;332905;29;1912;-80
2022/08/28 00:23:20;;;;;;;435.43;390.53;;;;;;;24.42;64.27;99242.66;332904;29;1289;-80
2022/08/28 00:23:34;;;;;;;435.20;390.42;;;;;;;24.41;64.25;99246.31;333218;29;2051;-79
2022/08/28 00:23:44;;;;;;;441.77;396.75;;;;;;;24.39;63.92;99242.97;332267;29;2143;-80
2022/08/28 00:23:55;;;;;;;445.27;399.63;;;;;;;24.40;63.83;99244.66;328468;29;1685;-80
2022/08/28 00:24:05;;;;;;;445.80;399.63;;;;;;;24.39;63.83;99242.97;329683;30;815;-80
2022/08/28 00:24:16;;;;;;;443.43;397.17;;;;;;;24.38;63.77;99236.78;331262;29;883;-80
2022/08/28 00:24:26;;;;;;;443.35;397.30;;;;;;;24.42;64.12;99237.31;329607;29;1301;-80
2022/08/28 00:24:37;;;;;;;442.55;396.92;;;;;;;24.42;64.06;99242.66;329468;30;942;-80
2022/08/28 00:24:47;;;;;;;441.83;396.20;;;;;;;24.45;64.12;99245.84;329162;29;1794;-80
2022/08/28 00:24:58;;;;;;;446.92;401.15;;;;;;;24.45;63.87;99242.34;325109;30;1976;-80
2022/08/28 00:25:10;;;;;;;456.27;410.03;;;;;;;24.45;64.28;99239.66;320278;30;1205;-80
2022/08/28 00:25:22;;;;;;;448.30;402.42;;;;;;;24.46;64.13;99238.66;322221;30;1401;-80
2022/08/28 00:25:34;;;;;;;438.38;393.00;;;;;;;24.47;63.94;99235.81;320971;30;1818;-80
2022/08/28 00:25:44;;;;;;;433.65;388.45;;;;;;;24.46;63.85;99238.66;316530;30;2240;-80
2022/08/28 00:25:55;;;;;;;442.90;397.02;;;;;;;24.44;63.67;99237.97;312202;31;2719;-80
2022/08/28 00:26:05;;;;;;;442.60;396.73;;;;;;;24.44;63.48;99235.31;311873;31;1368;-80
2022/08/28 00:27:51;;;;;;;448.13;402.38;;;;;;;24.46;63.40;99239.50;311740;31;1781;-80
2022/08/28 00:27:53;;;;;;;463.20;417.60;;;;;;;24.46;63.49;99244.00;303922;32;2760;-79
2022/08/28 00:28:06;;;;;;;467.08;421.33;;;;;;;24.45;63.55;99240.50;304717;32;2845;-81
2022/08/28 00:28:17;;;;;;;463.50;418.15;;;;;;;24.43;63.55;99239.81;301998;32;3150;-80
2022/08/28 00:28:28;;;;;;;470.42;424.95;;;;;;;24.43;63.83;99238.97;299611;32;2280;-80
2022/08/28 00:28:39;;;;;;;469.83;424.30;;;;;;;24.43;63.32;99239.81;302271;32;1330;-79
2022/08/28 00:28:49;;;;;;;474.67;428.75;;;;;;;24.41;63.36;99235.63;298307;33;1219;-79
2022/08/28 00:29:00;;;;;;;471.10;424.87;;;;;;;24.41;63.37;99235.63;299019;32;2675;-79
2022/08/28 00:29:10;;;;;;;470.33;424.07;;;;;;;24.41;63.56;99231.13;296992;33;2833;-79
2022/08/28 00:29:21;;;;;;;468.30;421.90;;;;;;;24.41;63.64;99241.81;295398;33;1217;-80
2022/08/28 00:29:31;;;;;;;458.03;412.10;;;;;;;24.40;63.43;99240.13;295872;33;4871;-80
2022/08/28 00:29:41;;;;;;;463.83;417.98;;;;;;;24.39;63.57;99235.78;293770;33;5284;-80
2022/08/28 00:29:52;;;;;;;464.70;418.87;;;;;;;24.41;63.41;99240.97;291642;34;1141;-80
2022/08/28 00:30:03;;;;;;;468.73;422.63;;;;;;;24.42;63.53;99242.66;289349;34;3947;-80
2022/08/28 00:30:13;;;;;;;461.38;415.25;;;;;;;24.39;63.45;99245.66;291175;33;4062;-79
2022/08/28 00:30:28;;;;;;;457.97;411.83;;;;;;;24.40;63.51;99234.78;293089;33;1253;-79
2022/08/28 00:30:47;;;;;;;459.70;413.88;;;;;;;24.38;63.60;99241.28;289508;34;1318;-79
2022/08/28 00:30:57;;;;;;;455.92;410.52;;;;;;;24.38;63.91;99238.63;288975;33;3596;-79
2022/08/28 00:31:08;;;;;;;454.48;409.02;;;;;;;24.37;63.43;99239.63;289732;34;903;-79
2022/08/28 00:31:18;;;;;;;467.93;421.87;;;;;;;24.36;63.31;99237.94;287130;33;3349;-79
2022/08/28 00:31:29;;;;;;;468.80;422.50;;;;;;;24.36;63.56;99238.78;286484;34;4747;-79
2022/08/28 00:31:39;;;;;;;469.23;422.87;;;;;;;24.31;63.26;99233.06;284348;34;5872;-79
2022/08/28 00:31:50;;;;;;;462.13;415.90;;;;;;;24.31;63.46;99235.72;281420;35;2744;-79
2022/08/28 00:32:00;;;;;;;465.90;419.58;;;;;;;24.31;63.29;99245.59;279017;35;7183;-79
2022/08/28 00:32:12;;;;;;;470.05;423.52;;;;;;;24.30;63.39;99241.25;278017;35;5922;-79
2022/08/28 00:32:24;;;;;;;476.55;429.85;;;;;;;24.28;63.73;99238.72;279879;35;2183;-80
2022/08/28 00:32:34;;;;;;;480.80;433.92;;;;;;;24.27;63.46;99233.53;274100;35;5246;-80
2022/08/28 00:32:45;;;;;;;479.50;432.80;;;;;;;24.25;63.96;99241.75;271611;36;5880;-80
2022/08/28 00:32:57;;;;;;;481.75;434.85;;;;;;;24.23;64.08;99242.88;269157;36;5849;-80
2022/08/28 00:33:14;;;;;;;479.33;432.08;;;;;;;24.23;63.99;99240.19;268589;37;854;-80
2022/08/28 00:33:31;;;;;;;471.83;425.17;;;;;;;24.21;64.03;99241.19;261105;37;6121;-80
2022/08/28 00:33:42;;;;;;;471.20;425.20;;;;;;;24.21;63.68;99238.53;254670;38;7600;-80
2022/08/28 00:33:53;;;;;;;480.70;434.43;;;;;;;24.22;63.81;99242.03;258470;38;1206;-80
2022/08/28 00:36:18;;;;;;;434.86;385.67;;;;;;;24.28;64.03;99246.75;2499915;27;20475;-79
2022/08/28 00:36:29;;;;;;;456.23;410.95;;;;;;;24.26;63.66;99242.59;351096;28;1461;-79
2022/08/28 00:36:40;;;;;;;466.70;421.17;;;;;;;24.25;64.04;99248.91;348826;28;917;-79
2022/08/28 00:36:50;;;;;;;472.35;426.55;;;;;;;24.22;63.75;99244.72;346499;28;1545;-79
2022/08/28 00:37:01;;;;;;;478.57;432.43;;;;;;;24.21;64.16;99246.53;346160;28;1022;-79
2022/08/28 00:37:12;;;;;;;477.13;430.92;;;;;;;24.23;64.13;99240.19;347684;28;1489;-82
2022/08/28 00:37:23;;;;;;;467.83;422.08;;;;;;;24.24;64.24;99244.56;346837;28;1509;-80
2022/08/28 00:37:33;;;;;;;458.03;412.47;;;;;;;24.24;63.55;99245.38;347776;28;1191;-80
2022/08/28 00:37:45;;;;;;;458.58;412.90;;;;;;;24.26;63.80;99242.59;347474;28;951;-80
2022/08/28 00:37:56;;;;;;;468.15;422.13;;;;;;;24.26;63.85;99245.25;347338;28;1433;-80
2022/08/28 00:38:09;;;;;;;464.83;419.17;;;;;;;24.24;63.98;99244.56;345058;28;1326;-80
2022/08/28 00:38:20;;;;;;;454.35;408.83;;;;;;;24.24;64.00;99247.22;345299;28;1156;-80
2022/08/28 00:38:30;;;;;;;461.90;416.43;;;;;;;24.24;63.89;99239.19;345091;28;1237;-79
2022/08/28 00:38:41;;;;;;;472.02;426.20;;;;;;;24.21;64.02;99246.53;343423;28;1221;-80
2022/08/28 00:38:51;;;;;;;474.33;428.37;;;;;;;24.19;64.21;99247.69;345014;28;1268;-80
2022/08/28 00:39:02;;;;;;;473.38;427.40;;;;;;;24.18;64.34;99244.19;346333;28;1345;-80
2022/08/28 00:39:12;;;;;;;467.00;421.08;;;;;;;24.18;64.24;99246.84;343048;28;1378;-79
2022/08/28 00:39:23;;;;;;;473.07;426.80;;;;;;;24.18;64.23;99246.03;345948;28;1302;-79
2022/08/28 00:39:33;;;;;;;472.83;426.05;;;;;;;24.20;64.32;99246.69;348902;28;1317;-79
2022/08/28 00:39:44;;;;;;;479.30;432.17;;;;;;;24.20;64.22;99244.88;346508;28;960;-79
2022/08/28 00:39:54;;;;;;;476.63;429.63;;;;;;;24.21;64.03;99246.53;344659;28;1209;-79
2022/08/28 00:40:07;;;;;;;475.30;428.80;;;;;;;24.22;64.40;99244.72;344605;28;1003;-80
2022/08/28 00:40:19;;;;;;;467.15;420.98;;;;;;;24.21;64.18;99246.53;343668;28;1391;-80
2022/08/28 00:40:29;;;;;;;475.48;429.17;;;;;;;24.24;64.26;99247.22;344662;28;876;-80
2022/08/28 00:40:42;;;;;;;485.87;439.20;;;;;;;24.25;63.88;99246.22;343484;28;1165;-78
2022/08/28 00:40:55;;;;;;;486.92;440.20;;;;;;;24.26;63.98;99245.25;343832;28;1534;-78
2022/08/28 00:41:06;;;;;;;483.00;436.58;;;;;;;24.26;64.03;99247.94;340633;28;2859;-81
2022/08/28 00:41:16;;;;;;;479.75;433.40;;;;;;;24.25;64.18;99243.56;339371;29;2819;-80
2022/08/28 00:41:28;;;;;;;480.83;434.23;;;;;;;24.26;63.94;99240.72;342182;28;1202;-80
2022/08/28 00:41:41;;;;;;;480.75;434.10;;;;;;;24.29;64.10;99250.25;342836;28;1465;-80
2022/08/28 00:41:52;;;;;;;483.10;436.42;;;;;;;24.28;63.79;99245.91;343223;28;1548;-80
2022/08/28 00:42:02;;;;;;;485.63;439.00;;;;;;;24.29;63.40;99242.25;341902;28;1419;-79
2022/08/28 00:42:13;;;;;;;485.08;438.73;;;;;;;24.26;63.27;99243.41;340270;29;1150;-79
2022/08/28 00:42:23;;;;;;;484.25;437.85;;;;;;;24.26;63.73;99247.94;339255;29;1517;-80
2022/08/28 00:42:34;;;;;;;475.07;428.93;;;;;;;24.26;63.99;99242.59;340567;29;1193;-80
2022/08/28 00:42:45;;;;;;;471.35;425.35;;;;;;;24.26;63.99;99247.94;341290;28;1348;-80
2022/08/28 00:42:56;;;;;;;461.38;415.83;;;;;;;24.26;63.90;99243.41;337279;29;1532;-78
2022/08/28 00:43:06;;;;;;;461.88;416.20;;;;;;;24.25;63.50;99240.88;337871;29;1146;-78
2022/08/28 00:43:37;;;;;;;457.05;411.70;;;;;;;24.24;63.85;99247.22;339833;29;1325;-81
2022/08/28 00:43:48;;;;;;;479.23;433.23;;;;;;;24.25;63.82;99251.56;338551;29;1497;-82
2022/08/28 00:44:08;;;;;;;483.17;437.17;;;;;;;24.27;64.32;99249.59;334244;29;1516;-80
2022/08/28 00:44:21;;;;;;;478.67;432.98;;;;;;;24.29;64.23;99247.59;337833;29;1513;-79
2022/08/28 00:44:32;;;;;;;475.05;429.25;;;;;;;24.27;63.97;99247.75;330421;29;1904;-80
2022/08/28 00:44:44;;;;;;;471.93;426.10;;;;;;;24.27;63.76;99246.91;330214;29;1263;-79
2022/08/28 00:44:54;;;;;;;469.10;423.27;;;;;;;24.25;63.68;99247.09;330208;29;1788;-80
2022/08/28 00:45:05;;;;;;;463.23;417.50;;;;;;;24.26;63.71;99242.59;329812;29;1916;-79
2022/08/28 00:45:16;;;;;;;467.02;421.20;;;;;;;24.27;63.79;99244.22;328899;30;1475;-80
2022/08/28 00:45:27;;;;;;;471.45;425.38;;;;;;;24.25;63.84;99246.22;328850;29;885;-80
2022/08/28 00:45:37;;;;;;;467.60;421.73;;;;;;;24.25;63.84;99243.56;328877;30;1207;-80
2022/08/28 00:45:48;;;;;;;463.20;417.27;;;;;;;24.25;63.61;99246.22;328626;30;1268;-80
2022/08/28 00:45:59;;;;;;;468.37;422.30;;;;;;;24.24;63.74;99248.06;328395;29;1356;-79
2022/08/28 00:46:19;;;;;;;470.80;424.52;;;;;;;24.21;64.04;99243.88;328336;29;1399;-79
2022/08/28 00:46:30;;;;;;;467.58;421.33;;;;;;;24.20;63.52;99246.69;326336;29;1990;-80
2022/08/28 00:46:41;;;;;;;462.17;416.23;;;;;;;24.19;63.62;99243.19;325793;30;2041;-79
2022/08/28 00:46:53;;;;;;;465.88;420.10;;;;;;;24.21;63.57;99251.06;325306;30;2012;-79
2022/08/28 00:47:03;;;;;;;463.73;418.15;;;;;;;24.19;63.78;99243.19;326904;30;1457;-79
2022/08/28 00:47:14;;;;;;;471.10;425.50;;;;;;;24.18;63.27;99241.50;321853;30;2365;-79
2022/08/28 00:47:25;;;;;;;475.57;429.63;;;;;;;24.19;63.60;99248.53;319569;30;1786;-80
2022/08/28 00:47:37;;;;;;;473.48;427.30;;;;;;;24.21;63.78;99241.19;323059;30;1453;-80
2022/08/28 00:47:48;;;;;;;477.58;431.10;;;;;;;24.21;63.49;99246.53;320738;30;1461;-80
2022/08/28 00:47:59;;;;;;;471.98;425.85;;;;;;;24.19;63.11;99243.19;320764;30;1402;-80
2022/08/28 00:48:09;;;;;;;463.07;417.17;;;;;;;24.19;63.42;99243.19;323919;30;1832;-80
2022/08/28 00:48:20;;;;;;;452.77;406.92;;;;;;;24.17;63.23;99234.47;323352;30;1027;-79
2022/08/28 00:48:30;;;;;;;457.87;411.90;;;;;;;24.18;63.26;99240.66;318432;30;2354;-79
2022/08/28 00:48:41;;;;;;;462.63;416.77;;;;;;;24.17;63.71;99245.19;319273;30;2166;-80
2022/08/28 00:48:51;;;;;;;466.27;420.27;;;;;;;24.17;63.32;99242.50;318959;30;2471;-80
2022/08/28 00:49:01;;;;;;;458.60;412.85;;;;;;;24.18;63.45;99246.03;317319;31;1240;-79
2022/08/28 00:49:13;;;;;;;461.50;415.37;;;;;;;24.16;63.77;99240.84;314226;31;2430;-79
2022/08/28 00:49:34;;;;;;;464.80;418.58;;;;;;;24.19;63.33;99248.53;312270;31;2552;-79
2022/08/28 00:49:48;;;;;;;466.73;420.67;;;;;;;24.20;63.71;99247.53;317947;31;1570;-79
2022/08/28 00:49:59;;;;;;;465.60;419.45;;;;;;;24.20;63.91;99244.88;315967;31;1417;-79
2022/08/28 00:50:10;;;;;;;462.13;416.33;;;;;;;24.20;63.70;99242.19;314844;31;2952;-80
2022/08/28 00:50:22;;;;;;;469.77;423.75;;;;;;;24.19;63.71;99237.84;312070;31;2571;-80
2022/08/28 00:52:04;;;;;;;468.85;423.15;;;;;;;24.24;63.21;99241.88;308858;31;2497;-80
2022/08/28 00:52:16;;;;;;;477.85;431.88;;;;;;;24.23;63.45;99243.72;304540;32;1828;-80
2022/08/28 00:52:26;;;;;;;474.73;428.73;;;;;;;24.21;63.66;99241.19;307227;31;2841;-79
2022/08/28 00:52:37;;;;;;;469.03;423.17;;;;;;;24.24;63.27;99244.56;305851;32;4205;-79
2022/08/28 00:52:56;;;;;;;460.40;414.73;;;;;;;24.21;63.71;99246.53;300703;32;1452;-79
2022/08/28 00:53:06;;;;;;;465.95;420.33;;;;;;;24.23;63.81;99245.53;296939;32;5151;-79
2022/08/28 00:53:17;;;;;;;471.08;425.40;;;;;;;24.23;63.72;99243.72;292167;33;1291;-79
2022/08/28 00:53:28;;;;;;;463.13;417.50;;;;;;;24.22;63.22;99242.03;291450;33;4972;-81
2022/08/28 00:53:39;;;;;;;467.10;421.23;;;;;;;24.23;63.35;99249.06;289922;33;3782;-80
2022/08/28 00:53:49;;;;;;;462.13;416.35;;;;;;;24.25;63.29;99241.75;290449;34;836;-79
2022/08/28 00:54:00;;;;;;;469.02;422.80;;;;;;;24.28;62.98;99243.25;291253;33;3659;-79
2022/08/28 00:54:10;;;;;;;473.30;426.77;;;;;;;24.27;62.87;99246.91;292437;33;3575;-79
2022/08/28 00:54:21;;;;;;;469.52;423.08;;;;;;;24.28;62.93;99245.91;292927;33;1332;-79
2022/08/28 00:54:32;;;;;;;473.80;427.60;;;;;;;24.26;63.22;99245.25;287272;34;1556;-79
2022/08/28 00:54:52;;;;;;;479.15;432.83;;;;;;;24.25;63.77;99239.06;285901;34;4322;-80
2022/08/28 00:55:08;;;;;;;467.90;421.55;;;;;;;24.24;62.89;99242.72;285433;34;1059;-79
2022/08/28 00:55:22;;;;;;;456.20;410.17;;;;;;;24.23;63.08;99242.88;283594;34;1356;-79
2022/08/28 00:55:33;;;;;;;463.60;417.67;;;;;;;24.22;63.46;99242.03;286305;34;845;-80
2022/08/28 00:55:43;;;;;;;466.20;420.40;;;;;;;24.21;63.54;99246.53;283245;34;7238;-80
2022/08/28 00:55:53;;;;;;;470.45;424.42;;;;;;;24.19;63.15;99243.19;279237;35;5884;-80
2022/08/28 00:56:05;;;;;;;474.57;428.60;;;;;;;24.17;63.50;99245.19;278181;35;1587;-80
2022/08/28 00:56:16;;;;;;;476.40;430.27;;;;;;;24.17;63.68;99244.34;278093;35;5328;-80
2022/08/28 00:56:27;;;;;;;471.70;425.58;;;;;;;24.16;63.57;99248.00;270767;35;4895;-79
2022/08/28 00:56:38;;;;;;;470.30;424.15;;;;;;;24.17;63.74;99249.69;267482;35;3887;-79
2022/08/28 00:56:49;;;;;;;479.55;433.13;;;;;;;24.16;63.33;99243.50;271079;36;1315;-79
2022/08/28 00:57:01;;;;;;;485.73;438.98;;;;;;;24.17;63.69;99253.19;269974;35;6702;-80
2022/08/28 00:58:33;;;;;;;439.36;392.22;;;;;;;24.21;63.17;99249.22;2498678;27;20521;-79
2022/08/28 00:58:45;;;;;;;476.33;430.47;;;;;;;24.23;63.19;99248.22;351773;28;1250;-79
2022/08/28 00:58:56;;;;;;;475.30;429.48;;;;;;;24.24;63.59;99249.91;347403;28;1511;-81
2022/08/28 00:59:08;;;;;;;468.33;422.85;;;;;;;24.23;63.67;99245.53;348713;28;1311;-80
2022/08/28 00:59:20;;;;;;;463.60;418.02;;;;;;;24.18;62.78;99249.53;347359;28;2590;-80
2022/08/28 00:59:30;;;;;;;462.58;416.90;;;;;;;24.16;62.61;99246.19;346305;28;2546;-80
2022/08/28 00:59:41;;;;;;;471.57;425.67;;;;;;;24.15;62.74;99247.16;347361;28;1253;-80
2022/08/28 00:59:51;;;;;;;476.13;429.80;;;;;;;24.14;63.17;99250.84;346882;28;1916;-80
2022/08/28 01:00:05;;;;;;;478.35;431.77;;;;;;;24.13;63.47;99254.50;347439;28;832;-80